sensor_id;sensor_type;location;lat;lon;timestamp;P1;durP1;ratioP1;P2;durP2;ratioP2
24617;SDS011;12762;51.730;5.356;2024-01-15T00:01:13;5.97;;;1.00;;
24617;SDS011;12762;51.730;5.356;2024-01-15T00:03:39;1.77;;;1.13;;
24617;SDS011;12762;51.730;5.356;2024-01-15T00:06:08;2.30;;;0.93;;
24617;SDS011;12762;51.730;5.356;2024-01-15T00:08:35;9.30;;;1.60;;
24617;SDS011;12762;51.730;5.356;2024-01-15T00:11:01;3.63;;;1.13;;
24617;SDS011;12762;51.730;5.356;2024-01-15T00:13:28;5.17;;;1.80;;
24617;SDS011;12762;51.730;5.356;2024-01-15T00:15:55;4.90;;;1.33;;
24617;SDS011;12762;51.730;5.356;2024-01-15T00:18:22;11.57;;;1.50;;
24617;SDS011;12762;51.730;5.356;2024-01-15T00:20:49;4.07;;;1.20;;
24617;SDS011;12762;51.730;5.356;2024-01-15T00:23:16;2.70;;;1.07;;
24617;SDS011;12762;51.730;5.356;2024-01-15T00:25:42;8.27;;;1.40;;
24617;SDS011;12762;51.730;5.356;2024-01-15T00:28:09;1.63;;;0.90;;
24617;SDS011;12762;51.730;5.356;2024-01-15T00:30:36;4.17;;;1.10;;
24617;SDS011;12762;51.730;5.356;2024-01-15T00:33:03;1.37;;;0.70;;
24617;SDS011;12762;51.730;5.356;2024-01-15T00:35:31;3.63;;;0.87;;
24617;SDS011;12762;51.730;5.356;2024-01-15T00:37:57;3.30;;;0.70;;
24617;SDS011;12762;51.730;5.356;2024-01-15T00:40:24;6.30;;;1.30;;
24617;SDS011;12762;51.730;5.356;2024-01-15T00:42:52;7.77;;;0.93;;
24617;SDS011;12762;51.730;5.356;2024-01-15T00:45:21;6.03;;;0.80;;
24617;SDS011;12762;51.730;5.356;2024-01-15T00:47:48;4.93;;;1.10;;
24617;SDS011;12762;51.730;5.356;2024-01-15T00:50:15;8.17;;;1.10;;
24617;SDS011;12762;51.730;5.356;2024-01-15T00:52:42;4.90;;;1.30;;
24617;SDS011;12762;51.730;5.356;2024-01-15T00:55:08;2.40;;;1.10;;
24617;SDS011;12762;51.730;5.356;2024-01-15T00:57:35;3.17;;;1.10;;
24617;SDS011;12762;51.730;5.356;2024-01-15T01:00:02;2.37;;;1.00;;
24617;SDS011;12762;51.730;5.356;2024-01-15T01:02:32;5.37;;;1.10;;
24617;SDS011;12762;51.730;5.356;2024-01-15T01:04:58;7.77;;;1.20;;
24617;SDS011;12762;51.730;5.356;2024-01-15T01:07:25;5.43;;;1.30;;
24617;SDS011;12762;51.730;5.356;2024-01-15T01:09:52;5.07;;;1.20;;
24617;SDS011;12762;51.730;5.356;2024-01-15T01:12:19;5.20;;;1.10;;
24617;SDS011;12762;51.730;5.356;2024-01-15T01:14:46;8.57;;;1.03;;
24617;SDS011;12762;51.730;5.356;2024-01-15T01:17:12;8.63;;;1.20;;
24617;SDS011;12762;51.730;5.356;2024-01-15T01:19:39;5.47;;;1.20;;
24617;SDS011;12762;51.730;5.356;2024-01-15T01:22:07;4.70;;;1.23;;
24617;SDS011;12762;51.730;5.356;2024-01-15T01:24:34;6.00;;;0.97;;
24617;SDS011;12762;51.730;5.356;2024-01-15T01:27:00;8.40;;;1.03;;
24617;SDS011;12762;51.730;5.356;2024-01-15T01:29:28;6.17;;;1.00;;
24617;SDS011;12762;51.730;5.356;2024-01-15T01:31:55;9.07;;;1.10;;
24617;SDS011;12762;51.730;5.356;2024-01-15T01:34:22;7.17;;;0.83;;
24617;SDS011;12762;51.730;5.356;2024-01-15T01:36:49;8.90;;;1.67;;
24617;SDS011;12762;51.730;5.356;2024-01-15T01:39:16;10.37;;;1.20;;
24617;SDS011;12762;51.730;5.356;2024-01-15T01:41:43;3.33;;;0.93;;
24617;SDS011;12762;51.730;5.356;2024-01-15T01:44:10;3.90;;;1.17;;
24617;SDS011;12762;51.730;5.356;2024-01-15T01:46:37;3.83;;;0.97;;
24617;SDS011;12762;51.730;5.356;2024-01-15T01:49:07;6.40;;;1.13;;
24617;SDS011;12762;51.730;5.356;2024-01-15T01:51:35;4.50;;;1.00;;
24617;SDS011;12762;51.730;5.356;2024-01-15T01:54:05;2.20;;;0.50;;
24617;SDS011;12762;51.730;5.356;2024-01-15T01:56:37;6.60;;;0.67;;
24617;SDS011;12762;51.730;5.356;2024-01-15T01:59:04;4.13;;;0.80;;
24617;SDS011;12762;51.730;5.356;2024-01-15T02:01:32;6.43;;;0.90;;
24617;SDS011;12762;51.730;5.356;2024-01-15T02:03:59;6.00;;;1.00;;
24617;SDS011;12762;51.730;5.356;2024-01-15T02:06:27;9.43;;;0.97;;
24617;SDS011;12762;51.730;5.356;2024-01-15T02:08:54;5.73;;;1.03;;
24617;SDS011;12762;51.730;5.356;2024-01-15T02:11:21;9.70;;;1.00;;
24617;SDS011;12762;51.730;5.356;2024-01-15T02:13:48;7.37;;;0.90;;
24617;SDS011;12762;51.730;5.356;2024-01-15T02:16:15;5.47;;;1.00;;
24617;SDS011;12762;51.730;5.356;2024-01-15T02:18:43;1.67;;;0.80;;
24617;SDS011;12762;51.730;5.356;2024-01-15T02:21:11;3.93;;;1.27;;
24617;SDS011;12762;51.730;5.356;2024-01-15T02:23:38;8.73;;;1.47;;
24617;SDS011;12762;51.730;5.356;2024-01-15T02:26:05;6.17;;;1.30;;
24617;SDS011;12762;51.730;5.356;2024-01-15T02:28:32;14.17;;;1.50;;
24617;SDS011;12762;51.730;5.356;2024-01-15T02:30:59;7.00;;;0.90;;
24617;SDS011;12762;51.730;5.356;2024-01-15T02:33:26;5.50;;;1.40;;
24617;SDS011;12762;51.730;5.356;2024-01-15T02:35:53;5.13;;;0.80;;
24617;SDS011;12762;51.730;5.356;2024-01-15T02:38:20;3.07;;;0.80;;
24617;SDS011;12762;51.730;5.356;2024-01-15T02:40:47;7.00;;;1.27;;
24617;SDS011;12762;51.730;5.356;2024-01-15T02:43:13;9.00;;;1.40;;
24617;SDS011;12762;51.730;5.356;2024-01-15T02:45:40;10.60;;;1.27;;
24617;SDS011;12762;51.730;5.356;2024-01-15T02:48:07;5.77;;;1.10;;
24617;SDS011;12762;51.730;5.356;2024-01-15T02:50:34;4.47;;;0.93;;
24617;SDS011;12762;51.730;5.356;2024-01-15T02:53:01;2.67;;;0.70;;
24617;SDS011;12762;51.730;5.356;2024-01-15T02:55:28;6.20;;;1.00;;
24617;SDS011;12762;51.730;5.356;2024-01-15T02:57:56;5.57;;;0.97;;
24617;SDS011;12762;51.730;5.356;2024-01-15T03:00:23;4.97;;;0.57;;
24617;SDS011;12762;51.730;5.356;2024-01-15T03:02:51;8.40;;;0.90;;
24617;SDS011;12762;51.730;5.356;2024-01-15T03:05:19;6.73;;;1.00;;
24617;SDS011;12762;51.730;5.356;2024-01-15T03:07:46;9.33;;;1.27;;
24617;SDS011;12762;51.730;5.356;2024-01-15T03:10:13;1.30;;;0.67;;
24617;SDS011;12762;51.730;5.356;2024-01-15T03:12:40;7.27;;;1.27;;
24617;SDS011;12762;51.730;5.356;2024-01-15T03:15:07;3.53;;;0.70;;
24617;SDS011;12762;51.730;5.356;2024-01-15T03:17:34;10.27;;;1.10;;
24617;SDS011;12762;51.730;5.356;2024-01-15T03:20:01;3.90;;;1.10;;
24617;SDS011;12762;51.730;5.356;2024-01-15T03:22:29;4.30;;;1.03;;
24617;SDS011;12762;51.730;5.356;2024-01-15T03:24:56;3.10;;;0.60;;
24617;SDS011;12762;51.730;5.356;2024-01-15T03:27:23;7.13;;;0.83;;
24617;SDS011;12762;51.730;5.356;2024-01-15T03:29:49;4.70;;;0.80;;
24617;SDS011;12762;51.730;5.356;2024-01-15T03:32:16;6.03;;;0.67;;
24617;SDS011;12762;51.730;5.356;2024-01-15T03:34:44;5.33;;;0.90;;
24617;SDS011;12762;51.730;5.356;2024-01-15T03:37:13;6.17;;;1.20;;
24617;SDS011;12762;51.730;5.356;2024-01-15T03:39:40;2.67;;;0.80;;
24617;SDS011;12762;51.730;5.356;2024-01-15T03:42:07;8.73;;;0.90;;
24617;SDS011;12762;51.730;5.356;2024-01-15T03:44:34;7.83;;;1.03;;
24617;SDS011;12762;51.730;5.356;2024-01-15T03:47:00;4.87;;;0.83;;
24617;SDS011;12762;51.730;5.356;2024-01-15T03:49:27;8.47;;;0.60;;
24617;SDS011;12762;51.730;5.356;2024-01-15T03:51:54;7.13;;;0.70;;
24617;SDS011;12762;51.730;5.356;2024-01-15T03:54:21;6.30;;;0.80;;
24617;SDS011;12762;51.730;5.356;2024-01-15T03:56:48;3.87;;;0.80;;
24617;SDS011;12762;51.730;5.356;2024-01-15T03:59:15;1.73;;;0.60;;
24617;SDS011;12762;51.730;5.356;2024-01-15T04:01:48;6.30;;;0.90;;
24617;SDS011;12762;51.730;5.356;2024-01-15T04:04:16;5.40;;;0.63;;
24617;SDS011;12762;51.730;5.356;2024-01-15T04:06:44;2.80;;;0.60;;
24617;SDS011;12762;51.730;5.356;2024-01-15T04:09:12;7.37;;;1.40;;
24617;SDS011;12762;51.730;5.356;2024-01-15T04:11:39;10.13;;;1.20;;
24617;SDS011;12762;51.730;5.356;2024-01-15T04:14:06;4.67;;;0.83;;
24617;SDS011;12762;51.730;5.356;2024-01-15T04:16:33;10.60;;;1.30;;
24617;SDS011;12762;51.730;5.356;2024-01-15T04:19:00;11.30;;;1.10;;
24617;SDS011;12762;51.730;5.356;2024-01-15T04:21:27;8.70;;;1.20;;
24617;SDS011;12762;51.730;5.356;2024-01-15T04:23:54;8.37;;;0.90;;
24617;SDS011;12762;51.730;5.356;2024-01-15T04:26:20;3.83;;;0.67;;
24617;SDS011;12762;51.730;5.356;2024-01-15T04:28:47;15.33;;;1.53;;
24617;SDS011;12762;51.730;5.356;2024-01-15T04:31:21;5.17;;;1.20;;
24617;SDS011;12762;51.730;5.356;2024-01-15T04:33:49;14.17;;;1.60;;
24617;SDS011;12762;51.730;5.356;2024-01-15T04:36:16;4.83;;;1.20;;
24617;SDS011;12762;51.730;5.356;2024-01-15T04:38:43;2.50;;;0.77;;
24617;SDS011;12762;51.730;5.356;2024-01-15T04:41:11;1.43;;;0.40;;
24617;SDS011;12762;51.730;5.356;2024-01-15T04:43:38;3.23;;;0.83;;
24617;SDS011;12762;51.730;5.356;2024-01-15T04:46:05;3.80;;;0.73;;
24617;SDS011;12762;51.730;5.356;2024-01-15T04:48:33;2.20;;;0.40;;
24617;SDS011;12762;51.730;5.356;2024-01-15T04:51:00;4.13;;;0.77;;
24617;SDS011;12762;51.730;5.356;2024-01-15T04:53:30;9.97;;;0.70;;
24617;SDS011;12762;51.730;5.356;2024-01-15T04:55:56;1.13;;;0.47;;
24617;SDS011;12762;51.730;5.356;2024-01-15T04:58:25;1.47;;;0.50;;
24617;SDS011;12762;51.730;5.356;2024-01-15T05:00:53;1.07;;;0.20;;
24617;SDS011;12762;51.730;5.356;2024-01-15T05:03:20;1.60;;;0.40;;
24617;SDS011;12762;51.730;5.356;2024-01-15T05:05:47;4.67;;;0.80;;
24617;SDS011;12762;51.730;5.356;2024-01-15T05:08:14;1.03;;;0.20;;
24617;SDS011;12762;51.730;5.356;2024-01-15T05:10:41;0.43;;;0.20;;
24617;SDS011;12762;51.730;5.356;2024-01-15T05:13:08;2.57;;;0.33;;
24617;SDS011;12762;51.730;5.356;2024-01-15T05:15:34;1.87;;;0.30;;
24617;SDS011;12762;51.730;5.356;2024-01-15T05:18:01;4.77;;;0.67;;
24617;SDS011;12762;51.730;5.356;2024-01-15T05:20:28;0.70;;;0.30;;
24617;SDS011;12762;51.730;5.356;2024-01-15T05:22:55;5.47;;;0.47;;
24617;SDS011;12762;51.730;5.356;2024-01-15T05:25:22;2.20;;;0.30;;
24617;SDS011;12762;51.730;5.356;2024-01-15T05:27:49;0.93;;;0.30;;
24617;SDS011;12762;51.730;5.356;2024-01-15T05:30:16;4.70;;;0.60;;
24617;SDS011;12762;51.730;5.356;2024-01-15T05:32:43;2.60;;;0.50;;
24617;SDS011;12762;51.730;5.356;2024-01-15T05:35:12;2.40;;;0.40;;
24617;SDS011;12762;51.730;5.356;2024-01-15T05:37:43;2.00;;;0.30;;
24617;SDS011;12762;51.730;5.356;2024-01-15T05:40:11;3.83;;;0.43;;
24617;SDS011;12762;51.730;5.356;2024-01-15T05:42:41;4.33;;;0.70;;
24617;SDS011;12762;51.730;5.356;2024-01-15T05:45:11;2.50;;;0.70;;
24617;SDS011;12762;51.730;5.356;2024-01-15T05:47:38;1.13;;;0.67;;
24617;SDS011;12762;51.730;5.356;2024-01-15T05:50:05;1.50;;;0.50;;
24617;SDS011;12762;51.730;5.356;2024-01-15T05:52:33;1.17;;;0.60;;
24617;SDS011;12762;51.730;5.356;2024-01-15T05:54:59;4.27;;;0.83;;
24617;SDS011;12762;51.730;5.356;2024-01-15T05:57:26;5.03;;;0.60;;
24617;SDS011;12762;51.730;5.356;2024-01-15T05:59:56;3.10;;;0.47;;
24617;SDS011;12762;51.730;5.356;2024-01-15T06:02:28;0.73;;;0.40;;
24617;SDS011;12762;51.730;5.356;2024-01-15T06:04:56;1.73;;;0.60;;
24617;SDS011;12762;51.730;5.356;2024-01-15T06:07:23;0.87;;;0.50;;
24617;SDS011;12762;51.730;5.356;2024-01-15T06:09:50;1.70;;;0.60;;
24617;SDS011;12762;51.730;5.356;2024-01-15T06:12:17;2.17;;;0.87;;
24617;SDS011;12762;51.730;5.356;2024-01-15T06:14:44;2.13;;;0.80;;
24617;SDS011;12762;51.730;5.356;2024-01-15T06:17:11;2.73;;;0.90;;
24617;SDS011;12762;51.730;5.356;2024-01-15T06:19:37;3.40;;;1.10;;
24617;SDS011;12762;51.730;5.356;2024-01-15T06:22:04;1.67;;;0.90;;
24617;SDS011;12762;51.730;5.356;2024-01-15T06:24:31;2.23;;;0.90;;
24617;SDS011;12762;51.730;5.356;2024-01-15T06:26:58;1.17;;;0.67;;
24617;SDS011;12762;51.730;5.356;2024-01-15T06:29:28;2.70;;;0.90;;
24617;SDS011;12762;51.730;5.356;2024-01-15T06:31:54;1.87;;;0.87;;
24617;SDS011;12762;51.730;5.356;2024-01-15T06:34:21;1.30;;;0.80;;
24617;SDS011;12762;51.730;5.356;2024-01-15T06:36:57;1.60;;;0.90;;
24617;SDS011;12762;51.730;5.356;2024-01-15T06:39:33;1.77;;;1.07;;
24617;SDS011;12762;51.730;5.356;2024-01-15T06:42:00;1.70;;;0.97;;
24617;SDS011;12762;51.730;5.356;2024-01-15T06:44:27;2.37;;;1.37;;
24617;SDS011;12762;51.730;5.356;2024-01-15T06:46:53;4.70;;;1.33;;
24617;SDS011;12762;51.730;5.356;2024-01-15T06:49:23;3.20;;;1.63;;
24617;SDS011;12762;51.730;5.356;2024-01-15T06:51:53;4.03;;;2.10;;
24617;SDS011;12762;51.730;5.356;2024-01-15T06:54:20;5.40;;;2.10;;
24617;SDS011;12762;51.730;5.356;2024-01-15T06:56:46;2.87;;;1.70;;
24617;SDS011;12762;51.730;5.356;2024-01-15T06:59:16;4.73;;;1.97;;
24617;SDS011;12762;51.730;5.356;2024-01-15T07:01:45;2.80;;;1.60;;
24617;SDS011;12762;51.730;5.356;2024-01-15T07:04:12;4.23;;;2.13;;
24617;SDS011;12762;51.730;5.356;2024-01-15T07:06:40;5.67;;;2.23;;
24617;SDS011;12762;51.730;5.356;2024-01-15T07:09:07;11.50;;;2.97;;
24617;SDS011;12762;51.730;5.356;2024-01-15T07:11:35;4.30;;;2.40;;
24617;SDS011;12762;51.730;5.356;2024-01-15T07:14:02;4.37;;;2.77;;
24617;SDS011;12762;51.730;5.356;2024-01-15T07:16:28;5.57;;;2.83;;
24617;SDS011;12762;51.730;5.356;2024-01-15T07:19:04;7.87;;;2.93;;
24617;SDS011;12762;51.730;5.356;2024-01-15T07:21:31;6.80;;;2.80;;
24617;SDS011;12762;51.730;5.356;2024-01-15T07:23:58;8.23;;;2.80;;
24617;SDS011;12762;51.730;5.356;2024-01-15T07:26:24;4.37;;;2.37;;
24617;SDS011;12762;51.730;5.356;2024-01-15T07:28:52;3.80;;;2.40;;
24617;SDS011;12762;51.730;5.356;2024-01-15T07:31:19;3.77;;;2.33;;
24617;SDS011;12762;51.730;5.356;2024-01-15T07:33:46;5.93;;;2.40;;
24617;SDS011;12762;51.730;5.356;2024-01-15T07:36:16;4.77;;;2.83;;
24617;SDS011;12762;51.730;5.356;2024-01-15T07:38:42;3.73;;;2.40;;
24617;SDS011;12762;51.730;5.356;2024-01-15T07:41:09;4.50;;;2.17;;
24617;SDS011;12762;51.730;5.356;2024-01-15T07:43:36;3.27;;;2.43;;
24617;SDS011;12762;51.730;5.356;2024-01-15T07:46:03;4.00;;;2.23;;
24617;SDS011;12762;51.730;5.356;2024-01-15T07:48:30;5.73;;;2.50;;
24617;SDS011;12762;51.730;5.356;2024-01-15T07:50:57;3.10;;;2.20;;
24617;SDS011;12762;51.730;5.356;2024-01-15T07:53:24;3.70;;;2.17;;
24617;SDS011;12762;51.730;5.356;2024-01-15T07:55:51;4.80;;;2.17;;
24617;SDS011;12762;51.730;5.356;2024-01-15T07:58:18;2.93;;;1.90;;
24617;SDS011;12762;51.730;5.356;2024-01-15T08:00:45;5.83;;;1.77;;
24617;SDS011;12762;51.730;5.356;2024-01-15T08:03:15;3.97;;;1.63;;
24617;SDS011;12762;51.730;5.356;2024-01-15T08:05:42;4.07;;;1.53;;
24617;SDS011;12762;51.730;5.356;2024-01-15T08:08:08;7.80;;;1.63;;
24617;SDS011;12762;51.730;5.356;2024-01-15T08:10:35;2.77;;;1.03;;
24617;SDS011;12762;51.730;5.356;2024-01-15T08:13:02;2.77;;;1.40;;
24617;SDS011;12762;51.730;5.356;2024-01-15T08:15:29;2.77;;;1.40;;
24617;SDS011;12762;51.730;5.356;2024-01-15T08:17:57;2.20;;;1.50;;
24617;SDS011;12762;51.730;5.356;2024-01-15T08:20:24;2.50;;;1.40;;
24617;SDS011;12762;51.730;5.356;2024-01-15T08:22:52;3.43;;;1.33;;
24617;SDS011;12762;51.730;5.356;2024-01-15T08:25:18;1.87;;;1.00;;
24617;SDS011;12762;51.730;5.356;2024-01-15T08:27:45;5.03;;;1.40;;
24617;SDS011;12762;51.730;5.356;2024-01-15T08:30:12;3.47;;;1.07;;
24617;SDS011;12762;51.730;5.356;2024-01-15T08:32:39;1.80;;;0.97;;
24617;SDS011;12762;51.730;5.356;2024-01-15T08:35:09;2.50;;;0.80;;
24617;SDS011;12762;51.730;5.356;2024-01-15T08:37:37;1.10;;;0.90;;
24617;SDS011;12762;51.730;5.356;2024-01-15T08:40:04;1.07;;;0.70;;
24617;SDS011;12762;51.730;5.356;2024-01-15T08:42:31;2.20;;;1.33;;
24617;SDS011;12762;51.730;5.356;2024-01-15T08:44:58;2.00;;;1.00;;
24617;SDS011;12762;51.730;5.356;2024-01-15T08:47:25;1.80;;;0.97;;
24617;SDS011;12762;51.730;5.356;2024-01-15T08:49:52;4.80;;;1.27;;
24617;SDS011;12762;51.730;5.356;2024-01-15T08:52:22;2.70;;;1.50;;
24617;SDS011;12762;51.730;5.356;2024-01-15T08:54:49;3.60;;;1.27;;
24617;SDS011;12762;51.730;5.356;2024-01-15T08:57:22;2.93;;;1.67;;
24617;SDS011;12762;51.730;5.356;2024-01-15T08:59:49;2.47;;;1.50;;
24617;SDS011;12762;51.730;5.356;2024-01-15T09:02:18;3.60;;;1.33;;
24617;SDS011;12762;51.730;5.356;2024-01-15T09:04:46;4.40;;;1.60;;
24617;SDS011;12762;51.730;5.356;2024-01-15T09:07:13;4.17;;;2.07;;
24617;SDS011;12762;51.730;5.356;2024-01-15T09:09:40;3.07;;;2.20;;
24617;SDS011;12762;51.730;5.356;2024-01-15T09:12:08;4.33;;;2.53;;
24617;SDS011;12762;51.730;5.356;2024-01-15T09:14:35;5.47;;;3.23;;
24617;SDS011;12762;51.730;5.356;2024-01-15T09:17:03;7.03;;;3.87;;
24617;SDS011;12762;51.730;5.356;2024-01-15T09:19:31;6.13;;;3.43;;
24617;SDS011;12762;51.730;5.356;2024-01-15T09:21:58;8.00;;;3.83;;
24617;SDS011;12762;51.730;5.356;2024-01-15T09:24:25;8.30;;;3.33;;
24617;SDS011;12762;51.730;5.356;2024-01-15T09:26:54;6.57;;;3.87;;
24617;SDS011;12762;51.730;5.356;2024-01-15T09:29:21;7.77;;;3.70;;
24617;SDS011;12762;51.730;5.356;2024-01-15T09:31:50;4.00;;;2.90;;
24617;SDS011;12762;51.730;5.356;2024-01-15T09:34:17;10.27;;;2.87;;
24617;SDS011;12762;51.730;5.356;2024-01-15T09:36:44;4.03;;;2.07;;
24617;SDS011;12762;51.730;5.356;2024-01-15T09:39:12;10.07;;;2.23;;
24617;SDS011;12762;51.730;5.356;2024-01-15T09:41:38;7.67;;;1.60;;
24617;SDS011;12762;51.730;5.356;2024-01-15T09:44:06;3.03;;;1.20;;
24617;SDS011;12762;51.730;5.356;2024-01-15T09:46:36;10.27;;;1.47;;
24617;SDS011;12762;51.730;5.356;2024-01-15T09:49:03;5.90;;;1.00;;
24617;SDS011;12762;51.730;5.356;2024-01-15T09:51:32;6.83;;;1.00;;
24617;SDS011;12762;51.730;5.356;2024-01-15T09:53:59;11.00;;;1.13;;
24617;SDS011;12762;51.730;5.356;2024-01-15T09:56:29;7.03;;;0.70;;
24617;SDS011;12762;51.730;5.356;2024-01-15T09:58:56;3.00;;;0.57;;
24617;SDS011;12762;51.730;5.356;2024-01-15T10:01:23;3.33;;;0.80;;
24617;SDS011;12762;51.730;5.356;2024-01-15T10:03:51;3.47;;;0.63;;
24617;SDS011;12762;51.730;5.356;2024-01-15T10:06:19;4.33;;;0.40;;
24617;SDS011;12762;51.730;5.356;2024-01-15T10:08:49;6.50;;;1.03;;
24617;SDS011;12762;51.730;5.356;2024-01-15T10:11:17;4.93;;;1.00;;
24617;SDS011;12762;51.730;5.356;2024-01-15T10:13:44;9.37;;;0.87;;
24617;SDS011;12762;51.730;5.356;2024-01-15T10:16:12;7.10;;;0.70;;
24617;SDS011;12762;51.730;5.356;2024-01-15T10:18:39;4.57;;;0.73;;
24617;SDS011;12762;51.730;5.356;2024-01-15T10:21:09;5.07;;;0.70;;
24617;SDS011;12762;51.730;5.356;2024-01-15T10:23:38;4.67;;;0.97;;
24617;SDS011;12762;51.730;5.356;2024-01-15T10:26:05;4.57;;;0.70;;
24617;SDS011;12762;51.730;5.356;2024-01-15T10:28:32;3.13;;;0.60;;
24617;SDS011;12762;51.730;5.356;2024-01-15T10:30:59;2.00;;;0.30;;
24617;SDS011;12762;51.730;5.356;2024-01-15T10:33:27;3.33;;;0.50;;
24617;SDS011;12762;51.730;5.356;2024-01-15T10:35:58;3.00;;;0.77;;
24617;SDS011;12762;51.730;5.356;2024-01-15T10:38:26;2.53;;;0.50;;
24617;SDS011;12762;51.730;5.356;2024-01-15T10:40:58;3.27;;;0.50;;
24617;SDS011;12762;51.730;5.356;2024-01-15T10:43:25;1.70;;;0.33;;
24617;SDS011;12762;51.730;5.356;2024-01-15T10:45:54;4.03;;;0.60;;
24617;SDS011;12762;51.730;5.356;2024-01-15T10:48:24;3.53;;;0.30;;
24617;SDS011;12762;51.730;5.356;2024-01-15T10:50:54;1.43;;;0.30;;
24617;SDS011;12762;51.730;5.356;2024-01-15T10:53:22;6.30;;;0.70;;
24617;SDS011;12762;51.730;5.356;2024-01-15T10:55:51;8.07;;;0.70;;
24617;SDS011;12762;51.730;5.356;2024-01-15T10:58:20;0.93;;;0.30;;
24617;SDS011;12762;51.730;5.356;2024-01-15T11:00:49;6.13;;;0.60;;
24617;SDS011;12762;51.730;5.356;2024-01-15T11:03:16;3.67;;;0.50;;
24617;SDS011;12762;51.730;5.356;2024-01-15T11:05:44;4.63;;;0.80;;
24617;SDS011;12762;51.730;5.356;2024-01-15T11:08:11;1.37;;;0.53;;
24617;SDS011;12762;51.730;5.356;2024-01-15T11:10:46;2.50;;;0.90;;
24617;SDS011;12762;51.730;5.356;2024-01-15T11:13:19;6.80;;;0.93;;
24617;SDS011;12762;51.730;5.356;2024-01-15T11:18:30;5.93;;;1.00;;
24617;SDS011;12762;51.730;5.356;2024-01-15T11:26:35;5.53;;;1.10;;
24617;SDS011;12762;51.730;5.356;2024-01-15T11:32:08;10.00;;;1.00;;
24617;SDS011;12762;51.730;5.356;2024-01-15T11:34:55;5.87;;;1.03;;
24617;SDS011;12762;51.730;5.356;2024-01-15T11:37:29;5.47;;;0.80;;
24617;SDS011;12762;51.730;5.356;2024-01-15T11:40:19;6.23;;;0.50;;
24617;SDS011;12762;51.730;5.356;2024-01-15T11:42:47;2.57;;;0.50;;
24617;SDS011;12762;51.730;5.356;2024-01-15T11:45:19;7.50;;;0.70;;
24617;SDS011;12762;51.730;5.356;2024-01-15T11:48:05;0.97;;;0.47;;
24617;SDS011;12762;51.730;5.356;2024-01-15T11:50:35;1.33;;;0.60;;
24617;SDS011;12762;51.730;5.356;2024-01-15T11:53:04;5.10;;;0.80;;
24617;SDS011;12762;51.730;5.356;2024-01-15T11:55:43;2.40;;;0.53;;
24617;SDS011;12762;51.730;5.356;2024-01-15T11:58:11;2.73;;;0.80;;
24617;SDS011;12762;51.730;5.356;2024-01-15T12:00:39;3.83;;;0.60;;
24617;SDS011;12762;51.730;5.356;2024-01-15T12:03:08;1.27;;;0.40;;
24617;SDS011;12762;51.730;5.356;2024-01-15T12:05:36;0.60;;;0.30;;
24617;SDS011;12762;51.730;5.356;2024-01-15T12:08:04;3.27;;;0.60;;
24617;SDS011;12762;51.730;5.356;2024-01-15T12:10:37;3.20;;;0.60;;
24617;SDS011;12762;51.730;5.356;2024-01-15T12:13:11;3.60;;;0.43;;
24617;SDS011;12762;51.730;5.356;2024-01-15T12:15:42;4.43;;;0.70;;
24617;SDS011;12762;51.730;5.356;2024-01-15T12:18:12;1.17;;;0.53;;
24617;SDS011;12762;51.730;5.356;2024-01-15T12:20:41;3.80;;;0.83;;
24617;SDS011;12762;51.730;5.356;2024-01-15T12:23:09;4.97;;;0.60;;
24617;SDS011;12762;51.730;5.356;2024-01-15T12:25:39;3.47;;;0.40;;
24617;SDS011;12762;51.730;5.356;2024-01-15T12:28:07;2.60;;;0.80;;
24617;SDS011;12762;51.730;5.356;2024-01-15T12:30:34;4.43;;;0.87;;
24617;SDS011;12762;51.730;5.356;2024-01-15T12:33:02;1.60;;;0.53;;
24617;SDS011;12762;51.730;5.356;2024-01-15T12:35:33;1.17;;;0.50;;
24617;SDS011;12762;51.730;5.356;2024-01-15T12:38:03;4.87;;;0.70;;
24617;SDS011;12762;51.730;5.356;2024-01-15T12:40:31;1.70;;;0.43;;
24617;SDS011;12762;51.730;5.356;2024-01-15T12:43:00;3.47;;;0.57;;
24617;SDS011;12762;51.730;5.356;2024-01-15T12:45:30;13.07;;;1.60;;
24617;SDS011;12762;51.730;5.356;2024-01-15T12:47:58;1.97;;;0.37;;
24617;SDS011;12762;51.730;5.356;2024-01-15T12:50:35;21.50;;;2.00;;
24617;SDS011;12762;51.730;5.356;2024-01-15T12:53:02;0.60;;;0.30;;
24617;SDS011;12762;51.730;5.356;2024-01-15T12:55:29;4.17;;;0.50;;
24617;SDS011;12762;51.730;5.356;2024-01-15T12:57:56;1.70;;;0.70;;
24617;SDS011;12762;51.730;5.356;2024-01-15T13:00:23;5.07;;;0.60;;
24617;SDS011;12762;51.730;5.356;2024-01-15T13:02:52;2.60;;;0.50;;
24617;SDS011;12762;51.730;5.356;2024-01-15T13:05:20;0.77;;;0.30;;
24617;SDS011;12762;51.730;5.356;2024-01-15T13:07:51;6.50;;;0.47;;
24617;SDS011;12762;51.730;5.356;2024-01-15T13:10:18;3.70;;;0.43;;
24617;SDS011;12762;51.730;5.356;2024-01-15T13:12:45;2.40;;;0.57;;
24617;SDS011;12762;51.730;5.356;2024-01-15T13:15:12;2.40;;;0.60;;
24617;SDS011;12762;51.730;5.356;2024-01-15T13:17:41;42.87;;;5.07;;
24617;SDS011;12762;51.730;5.356;2024-01-15T13:20:08;1.93;;;0.40;;
24617;SDS011;12762;51.730;5.356;2024-01-15T13:22:37;10.40;;;1.60;;
24617;SDS011;12762;51.730;5.356;2024-01-15T13:25:06;4.07;;;1.10;;
24617;SDS011;12762;51.730;5.356;2024-01-15T13:27:37;5.50;;;0.80;;
24617;SDS011;12762;51.730;5.356;2024-01-15T13:30:06;25.90;;;3.53;;
24617;SDS011;12762;51.730;5.356;2024-01-15T13:32:35;2.30;;;0.70;;
24617;SDS011;12762;51.730;5.356;2024-01-15T13:35:02;6.17;;;1.00;;
24617;SDS011;12762;51.730;5.356;2024-01-15T13:37:31;4.23;;;0.83;;
24617;SDS011;12762;51.730;5.356;2024-01-15T13:39:58;3.60;;;0.70;;
24617;SDS011;12762;51.730;5.356;2024-01-15T13:42:25;4.20;;;0.97;;
24617;SDS011;12762;51.730;5.356;2024-01-15T13:44:53;3.87;;;0.90;;
24617;SDS011;12762;51.730;5.356;2024-01-15T13:47:21;1.57;;;0.87;;
24617;SDS011;12762;51.730;5.356;2024-01-15T13:49:47;2.57;;;1.03;;
24617;SDS011;12762;51.730;5.356;2024-01-15T13:52:14;10.13;;;0.80;;
24617;SDS011;12762;51.730;5.356;2024-01-15T13:54:41;4.37;;;0.90;;
24617;SDS011;12762;51.730;5.356;2024-01-15T13:57:18;4.47;;;0.80;;
24617;SDS011;12762;51.730;5.356;2024-01-15T13:59:46;3.70;;;1.07;;
24617;SDS011;12762;51.730;5.356;2024-01-15T14:02:13;4.43;;;1.30;;
24617;SDS011;12762;51.730;5.356;2024-01-15T14:04:46;2.73;;;0.73;;
24617;SDS011;12762;51.730;5.356;2024-01-15T14:07:13;4.47;;;0.57;;
24617;SDS011;12762;51.730;5.356;2024-01-15T14:09:40;5.70;;;1.00;;
24617;SDS011;12762;51.730;5.356;2024-01-15T14:12:07;2.73;;;0.60;;
24617;SDS011;12762;51.730;5.356;2024-01-15T14:14:33;3.97;;;0.70;;
24617;SDS011;12762;51.730;5.356;2024-01-15T14:17:00;4.27;;;0.80;;
24617;SDS011;12762;51.730;5.356;2024-01-15T14:19:27;3.27;;;0.80;;
24617;SDS011;12762;51.730;5.356;2024-01-15T14:21:57;3.77;;;0.80;;
24617;SDS011;12762;51.730;5.356;2024-01-15T14:24:23;5.03;;;1.10;;
24617;SDS011;12762;51.730;5.356;2024-01-15T14:26:50;4.53;;;0.80;;
24617;SDS011;12762;51.730;5.356;2024-01-15T14:29:17;3.80;;;0.97;;
24617;SDS011;12762;51.730;5.356;2024-01-15T14:31:46;7.43;;;1.30;;
24617;SDS011;12762;51.730;5.356;2024-01-15T14:34:13;8.67;;;0.97;;
24617;SDS011;12762;51.730;5.356;2024-01-15T14:36:40;6.27;;;0.90;;
24617;SDS011;12762;51.730;5.356;2024-01-15T14:39:07;6.50;;;1.10;;
24617;SDS011;12762;51.730;5.356;2024-01-15T14:41:36;9.33;;;1.33;;
24617;SDS011;12762;51.730;5.356;2024-01-15T14:44:03;6.07;;;0.97;;
24617;SDS011;12762;51.730;5.356;2024-01-15T14:46:30;3.80;;;1.17;;
24617;SDS011;12762;51.730;5.356;2024-01-15T14:48:56;5.67;;;0.63;;
24617;SDS011;12762;51.730;5.356;2024-01-15T14:51:23;4.53;;;1.30;;
24617;SDS011;12762;51.730;5.356;2024-01-15T14:53:51;8.80;;;1.27;;
24617;SDS011;12762;51.730;5.356;2024-01-15T14:56:17;8.30;;;1.53;;
24617;SDS011;12762;51.730;5.356;2024-01-15T14:58:47;3.03;;;1.00;;
24617;SDS011;12762;51.730;5.356;2024-01-15T15:01:15;4.30;;;0.90;;
24617;SDS011;12762;51.730;5.356;2024-01-15T15:03:42;5.27;;;1.40;;